Time;durP1;ratioP1;P1;durP2;ratioP2;P2;SDS_P1;SDS_P2;PMS_P1;PMS_P2;Temp;Humidity;BMP_temperature;BMP_pressure;BME280_temperature;BME280_humidity;BME280_pressure;Samples;Min_cycle;Max_cycle;Signal;HPM_P1;HPM_P2
2022/12/26 00:01:25;;;;;;;0.50;0.50;;;;;;;-0.97;100.00;100463.47;5003665;28;20041;-75
2022/12/26 00:03:52;;;;;;;0.50;0.50;;;;;;;-0.84;100.00;100464.28;5052204;28;20025;-76
2022/12/26 00:06:20;;;;;;;0.45;0.45;;;;;;;-0.66;100.00;100475.34;5003316;28;20402;-76
2022/12/26 00:08:46;;;;;;;0.50;0.50;;;;;;;-0.55;100.00;100483.31;5003351;28;20132;-74
2022/12/26 00:11:13;;;;;;;0.40;0.40;;;;;;;-0.45;100.00;100483.47;5003195;28;20029;-76
2022/12/26 00:13:42;;;;;;;0.50;0.50;;;;;;;-0.40;100.00;100472.59;5019043;28;20044;-76
2022/12/26 00:16:17;;;;;;;0.50;0.50;;;;;;;-0.27;100.00;100482.13;5003434;28;20034;-76
2022/12/26 00:18:44;;;;;;;0.50;0.50;;;;;;;-0.18;100.00;100471.88;5019419;28;20047;-74
2022/12/26 00:21:12;;;;;;;0.50;0.50;;;;;;;-0.11;100.00;100475.72;5019192;28;20029;-74
2022/12/26 00:23:38;;;;;;;0.50;0.50;;;;;;;-0.13;100.00;100475.84;5003212;28;20044;-74
2022/12/26 00:26:07;;;;;;;0.40;0.40;;;;;;;-0.17;100.00;100477.00;5035669;28;20060;-74
2022/12/26 00:28:32;;;;;;;0.40;0.40;;;;;;;-0.21;100.00;100480.84;5002900;28;20034;-74
2022/12/26 00:31:02;;;;;;;0.50;0.50;;;;;;;-0.38;100.00;100478.59;5002792;28;20049;-74
2022/12/26 00:33:28;;;;;;;0.50;0.50;;;;;;;-0.50;100.00;100486.47;5019002;28;20124;-74
2022/12/26 00:35:53;;;;;;;0.50;0.50;;;;;;;-0.56;100.00;100493.97;5002756;28;20127;-74
2022/12/26 00:38:19;;;;;;;0.50;0.50;;;;;;;-0.56;100.00;100491.34;5002779;28;20080;-74
2022/12/26 00:40:45;;;;;;;0.50;0.50;;;;;;;-0.71;100.00;100498.59;5002704;28;20073;-76
2022/12/26 00:43:11;;;;;;;0.50;0.50;;;;;;;-0.97;100.00;100503.91;5002610;28;20124;-74
2022/12/26 00:45:36;;;;;;;0.50;0.50;;;;;;;-1.02;100.00;100503.38;5018881;28;20037;-74
2022/12/26 00:48:02;;;;;;;0.40;0.40;;;;;;;-1.11;100.00;100498.78;5034742;28;20117;-74
2022/12/26 00:50:28;;;;;;;0.43;0.43;;;;;;;-1.21;100.00;100506.47;5002470;28;20034;-74
2022/12/26 00:52:55;;;;;;;0.50;0.50;;;;;;;-1.27;100.00;100512.19;5002537;28;20040;-74
2022/12/26 00:55:21;;;;;;;0.50;0.50;;;;;;;-1.32;100.00;100503.75;5018659;28;20086;-74
2022/12/26 00:57:47;;;;;;;0.50;0.50;;;;;;;-1.41;100.00;100522.81;5002087;28;20041;-74
2022/12/26 01:00:13;;;;;;;0.47;0.47;;;;;;;-1.50;100.00;100518.19;5002042;28;20037;-74
2022/12/26 01:02:39;;;;;;;0.50;0.50;;;;;;;-1.67;100.00;100520.16;5018554;28;20033;-75
2022/12/26 01:05:07;;;;;;;0.50;0.50;;;;;;;-1.74;100.00;100525.97;5002191;28;20048;-75
2022/12/26 01:07:35;;;;;;;0.40;0.40;;;;;;;-1.52;100.00;100539.38;5017984;28;20052;-75
2022/12/26 01:10:01;;;;;;;0.50;0.50;;;;;;;-1.25;100.00;100547.19;5034909;28;20112;-74
2022/12/26 01:12:27;;;;;;;0.40;0.40;;;;;;;-1.06;100.00;100545.91;5002060;28;20041;-75
2022/12/26 01:14:59;;;;;;;0.40;0.40;;;;;;;-0.95;100.00;100548.69;5002141;28;20033;-75
2022/12/26 01:17:27;;;;;;;0.50;0.50;;;;;;;-0.88;100.00;100552.56;5018322;28;20037;-75
2022/12/26 01:19:52;;;;;;;0.45;0.45;;;;;;;-0.87;100.00;100546.34;5034325;28;20025;-75
2022/12/26 01:22:18;;;;;;;0.40;0.40;;;;;;;-0.80;100.00;100544.09;5001528;28;20391;-75
2022/12/26 01:24:44;;;;;;;0.50;0.50;;;;;;;-0.74;100.00;100562.13;5034139;28;20060;-75
2022/12/26 01:27:10;;;;;;;0.40;0.40;;;;;;;-0.73;100.00;100554.13;5017908;28;20033;-76
2022/12/26 01:29:36;;;;;;;0.40;0.40;;;;;;;-0.90;100.00;100559.72;5001834;28;20505;-75
2022/12/26 01:32:01;;;;;;;0.50;0.50;;;;;;;-1.05;100.00;100566.09;5001782;28;20030;-75
2022/12/26 01:34:27;;;;;;;0.43;0.43;;;;;;;-1.09;100.00;100557.53;5034031;28;20038;-75
2022/12/26 01:36:53;;;;;;;0.50;0.50;;;;;;;-1.12;100.00;100571.78;5001618;28;20055;-74
2022/12/26 01:39:19;;;;;;;0.50;0.50;;;;;;;-1.11;100.00;100575.28;5001590;28;20049;-75
2022/12/26 01:41:45;;;;;;;0.50;0.50;;;;;;;-1.09;100.00;100576.00;5017651;28;20103;-75
2022/12/26 01:44:48;;;;;;;0.40;0.40;;;;;;;-1.07;100.00;100587.31;5001499;28;20045;-75
2022/12/26 01:47:14;;;;;;;0.50;0.50;;;;;;;-1.16;100.00;100590.59;5017352;28;20040;-75
2022/12/26 01:49:42;;;;;;;0.40;0.40;;;;;;;-1.26;100.00;100600.06;5017203;28;20033;-75
2022/12/26 01:52:12;;;;;;;0.50;0.50;;;;;;;-1.34;100.00;100585.59;5017514;28;20080;-75
2022/12/26 01:54:40;;;;;;;0.50;0.50;;;;;;;-1.31;100.00;100596.91;5017706;28;20048;-75
2022/12/26 01:57:11;;;;;;;0.50;0.50;;;;;;;-1.19;100.00;100596.03;5000888;28;20470;-75
2022/12/26 01:59:38;;;;;;;0.40;0.40;;;;;;;-1.06;100.00;100594.25;5033589;28;20028;-75
2022/12/26 02:02:04;;;;;;;0.50;0.50;;;;;;;-0.91;100.00;100609.03;5017359;28;20041;-75
2022/12/26 02:07:19;;;;;;;0.50;0.50;;;;;;;-1.26;100.00;100605.34;5020449;28;20033;-75
2022/12/26 02:09:45;;;;;;;0.47;0.47;;;;;;;-1.38;100.00;100612.28;5000408;28;20051;-75
2022/12/26 02:12:35;;;;;;;0.50;0.50;;;;;;;-1.49;100.00;100617.44;5000937;28;20029;-75
2022/12/26 02:15:02;;;;;;;0.50;0.50;;;;;;;-1.37;100.00;100622.72;5002978;28;20112;-74
2022/12/26 02:17:28;;;;;;;0.40;0.40;;;;;;;-1.07;100.00;100632.16;5033535;28;20037;-75
2022/12/26 02:19:58;;;;;;;0.50;0.50;;;;;;;-0.74;100.00;100626.38;5016983;28;20082;-75
2022/12/26 02:22:50;;;;;;;0.50;0.50;;;;;;;-0.52;100.00;100611.66;5033513;28;20037;-74
2022/12/26 02:25:34;;;;;;;0.50;0.50;;;;;;;-0.50;100.00;100605.31;5017076;28;20056;-74
2022/12/26 02:28:24;;;;;;;0.47;0.47;;;;;;;-0.36;100.00;100609.63;5016709;28;20053;-74
2022/12/26 02:31:22;;;;;;;0.40;0.40;;;;;;;0.07;100.00;100645.34;5017051;28;20034;-74
2022/12/26 02:34:20;;;;;;;0.50;0.50;;;;;;;0.20;100.00;100635.56;5015153;28;20042;-74
2022/12/26 02:37:42;;;;;;;0.40;0.40;;;;;;;0.25;100.00;100641.34;4999029;28;20049;-74
2022/12/26 02:40:30;;;;;;;0.40;0.40;;;;;;;0.24;100.00;100642.31;4996124;28;20459;-74
2022/12/26 02:43:07;;;;;;;0.50;0.50;;;;;;;0.26;100.00;100644.84;4979372;28;20049;-74
2022/12/26 02:48:48;;;;;;;0.50;0.50;;;;;;;0.27;100.00;100643.91;5018559;28;20041;-74
2022/12/26 03:14:35;;;;;;;0.50;0.50;;;;;;;-0.04;100.00;100667.25;5032668;28;20033;-74
2022/12/26 03:17:20;;;;;;;0.50;0.50;;;;;;;0.11;100.00;100670.59;5016306;28;20026;-73
2022/12/26 03:20:01;;;;;;;0.50;0.50;;;;;;;0.39;100.00;100688.78;5001424;28;20030;-74
2022/12/26 03:22:49;;;;;;;0.40;0.40;;;;;;;0.56;100.00;100700.78;5032529;28;20040;-74
2022/12/26 03:28:24;;;;;;;0.50;0.50;;;;;;;0.58;100.00;100701.53;5032227;28;20476;-74
2022/12/26 03:30:51;;;;;;;0.50;0.50;;;;;;;0.74;100.00;100701.25;5015879;28;20124;-74
2022/12/26 03:36:06;;;;;;;0.50;0.50;;;;;;;0.72;100.00;100689.91;5032552;28;20033;-74
2022/12/26 03:38:50;;;;;;;0.40;0.40;;;;;;;0.58;100.00;100690.94;5016035;28;20147;-74
2022/12/26 04:19:26;;;;;;;0.50;0.50;;;;;;;1.16;100.00;100712.19;5032272;28;20056;-74
2022/12/26 04:44:34;;;;;;;0.50;0.50;;;;;;;0.53;100.00;100710.72;5035512;28;20033;-74
2022/12/26 04:46:59;;;;;;;0.40;0.40;;;;;;;0.61;100.00;100726.91;5018416;28;20022;-74
2022/12/26 04:52:13;;;;;;;0.43;0.43;;;;;;;0.67;100.00;100726.47;5021295;28;20049;-74
2022/12/26 04:54:39;;;;;;;0.50;0.50;;;;;;;0.84;100.00;100736.63;5002600;28;20035;-74
2022/12/26 04:57:05;;;;;;;0.50;0.50;;;;;;;0.99;100.00;100731.16;5002394;28;20041;-74
2022/12/26 04:59:31;;;;;;;0.40;0.40;;;;;;;1.11;100.00;100735.53;5002222;28;20048;-74
2022/12/26 05:10:21;;;;;;;0.50;0.50;;;;;;;1.47;100.00;100742.50;5034704;28;20391;-74
2022/12/26 05:12:47;;;;;;;0.43;0.43;;;;;;;1.66;100.00;100756.97;5002103;28;20040;-74
2022/12/26 05:15:13;;;;;;;0.50;0.50;;;;;;;1.81;100.00;100744.34;5002120;28;20135;-75
2022/12/26 05:28:58;;;;;;;0.50;0.50;;;;;;;1.56;100.00;100734.78;5020588;28;20057;-74
2022/12/26 05:31:24;;;;;;;0.50;0.50;;;;;;;1.35;100.00;100738.16;5034366;28;20035;-74
2022/12/26 05:34:07;;;;;;;0.40;0.40;;;;;;;1.26;100.00;100739.66;5001724;28;20120;-74
2022/12/26 05:36:42;;;;;;;0.50;0.50;;;;;;;1.19;100.00;100740.25;5034240;28;20065;-73
2022/12/26 05:39:08;;;;;;;0.50;0.50;;;;;;;1.14;100.00;100748.56;5001609;28;20040;-74
2022/12/26 05:41:35;;;;;;;0.50;0.50;;;;;;;1.05;100.00;100741.28;5017896;28;20084;-74
2022/12/26 05:44:01;;;;;;;0.50;0.50;;;;;;;0.88;100.00;100734.63;5033125;28;20044;-73
2022/12/26 05:46:27;;;;;;;0.40;0.40;;;;;;;0.76;100.00;100732.88;5001156;28;20034;-73
2022/12/26 05:48:52;;;;;;;0.40;0.40;;;;;;;0.54;100.00;100737.09;5017155;28;20068;-74
2022/12/26 05:51:18;;;;;;;0.50;0.50;;;;;;;0.38;100.00;100726.78;5001406;28;20037;-73
2022/12/26 05:53:44;;;;;;;0.50;0.50;;;;;;;0.25;100.00;100733.06;5017174;28;20034;-74
2022/12/26 05:56:12;;;;;;;0.43;0.43;;;;;;;0.05;100.00;100734.47;5001331;28;20060;-74
2022/12/26 05:58:38;;;;;;;0.50;0.50;;;;;;;-0.13;100.00;100745.41;5001163;28;20082;-74
2022/12/26 06:01:09;;;;;;;0.50;0.50;;;;;;;-0.30;100.00;100736.00;5000863;28;20072;-73
2022/12/26 06:03:35;;;;;;;0.50;0.50;;;;;;;-0.27;100.00;100741.06;5033733;28;20112;-73
2022/12/26 06:06:02;;;;;;;0.50;0.50;;;;;;;-0.14;100.00;100750.78;5033971;28;20533;-74
2022/12/26 06:08:27;;;;;;;0.40;0.40;;;;;;;0.02;100.00;100758.50;5000891;28;20030;-73
2022/12/26 06:10:53;;;;;;;0.50;0.50;;;;;;;0.22;100.00;100761.41;5017335;28;20375;-73
2022/12/26 06:13:19;;;;;;;0.40;0.40;;;;;;;0.47;100.00;100767.59;5017074;28;20051;-73
2022/12/26 06:15:44;;;;;;;0.50;0.50;;;;;;;0.68;100.00;100767.00;5000920;28;20040;-74
2022/12/26 06:18:10;;;;;;;0.50;0.50;;;;;;;0.73;100.00;100771.00;5016839;28;20531;-73
2022/12/26 06:20:39;;;;;;;0.50;0.50;;;;;;;0.66;100.00;100777.69;5000838;28;20037;-74
2022/12/26 06:23:05;;;;;;;0.50;0.50;;;;;;;0.35;100.00;100753.44;5033209;28;20034;-74
2022/12/26 06:25:31;;;;;;;0.50;0.50;;;;;;;0.43;100.00;100776.72;5000730;28;20029;-74
2022/12/26 06:27:57;;;;;;;0.50;0.50;;;;;;;0.53;100.00;100772.44;5000498;28;20036;-73
2022/12/26 06:30:22;;;;;;;0.40;0.40;;;;;;;0.61;100.00;100778.03;5000563;28;20029;-74
2022/12/26 06:32:48;;;;;;;0.40;0.40;;;;;;;0.72;100.00;100771.13;5033239;28;20391;-73
2022/12/26 06:35:14;;;;;;;0.40;0.40;;;;;;;0.67;100.00;100783.84;5000524;28;20386;-75
2022/12/26 06:37:42;;;;;;;0.40;0.40;;;;;;;0.44;100.00;100773.94;5000655;28;20034;-74
2022/12/26 06:40:09;;;;;;;0.50;0.50;;;;;;;0.32;100.00;100777.47;5000409;28;20053;-74
2022/12/26 06:42:34;;;;;;;0.50;0.50;;;;;;;0.23;100.00;100775.47;5016686;28;20087;-73
2022/12/26 06:45:00;;;;;;;0.50;0.50;;;;;;;0.02;100.00;100771.72;5000427;28;20037;-73
2022/12/26 06:47:26;;;;;;;0.50;0.50;;;;;;;-0.04;100.00;100770.34;5032888;28;20032;-74
2022/12/26 06:49:51;;;;;;;0.50;0.50;;;;;;;-0.07;100.00;100783.78;5000357;28;20053;-74
2022/12/26 06:52:17;;;;;;;0.50;0.50;;;;;;;-0.20;100.00;100775.84;5000363;28;20117;-74
2022/12/26 06:54:43;;;;;;;0.50;0.50;;;;;;;-0.08;100.00;100788.22;5000249;28;20037;-74
2022/12/26 06:57:09;;;;;;;0.40;0.40;;;;;;;0.04;100.00;100793.59;5016146;28;20040;-73
2022/12/26 06:59:34;;;;;;;0.50;0.50;;;;;;;0.32;100.00;100796.00;5016546;28;20033;-74
2022/12/26 07:02:00;;;;;;;0.50;0.50;;;;;;;0.69;100.00;100814.53;5016446;28;20486;-73
2022/12/26 07:04:26;;;;;;;0.47;0.47;;;;;;;0.97;100.00;100818.63;4999872;28;20037;-73
2022/12/26 07:06:52;;;;;;;0.40;0.40;;;;;;;1.15;100.00;100831.50;4999970;28;20107;-73
2022/12/26 07:09:18;;;;;;;0.50;0.50;;;;;;;1.29;100.00;100839.25;5000129;28;20033;-74
2022/12/26 07:11:49;;;;;;;1.30;0.65;;;;;;;1.31;100.00;100842.63;4999893;28;20030;-74
2022/12/26 07:14:15;;;;;;;0.45;0.45;;;;;;;1.26;100.00;100856.22;4999953;28;20128;-73
2022/12/26 07:16:43;;;;;;;0.50;0.50;;;;;;;1.10;100.00;100858.31;4999661;28;20435;-74
2022/12/26 07:19:10;;;;;;;0.50;0.50;;;;;;;0.94;100.00;100849.81;4999937;28;20135;-74
2022/12/26 07:21:36;;;;;;;0.50;0.50;;;;;;;0.76;100.00;100842.22;5032043;28;20037;-73
2022/12/26 07:24:03;;;;;;;0.40;0.40;;;;;;;0.54;100.00;100847.38;5032654;28;20475;-74
2022/12/26 07:26:28;;;;;;;0.43;0.43;;;;;;;0.35;100.00;100835.44;4999742;28;20135;-74
2022/12/26 07:28:58;;;;;;;0.40;0.40;;;;;;;0.23;100.00;100844.22;4999891;28;20041;-74
2022/12/26 07:31:26;;;;;;;0.50;0.50;;;;;;;-0.12;100.00;100815.81;5032430;28;20029;-74
2022/12/26 07:33:54;;;;;;;0.50;0.50;;;;;;;0.06;100.00;100845.41;5032477;28;20022;-74
2022/12/26 07:36:20;;;;;;;0.43;0.43;;;;;;;0.18;100.00;100843.69;5032459;28;20034;-74
2022/12/26 07:38:46;;;;;;;0.40;0.40;;;;;;;0.41;100.00;100842.94;5016090;28;20038;-75
2022/12/26 07:43:56;;;;;;;0.50;0.50;;;;;;;0.64;100.00;100832.53;5018394;28;20041;-74
2022/12/26 07:46:22;;;;;;;0.50;0.50;;;;;;;0.39;100.00;100825.47;4999658;28;20030;-74
2022/12/26 07:48:48;;;;;;;0.50;0.50;;;;;;;0.18;100.00;100833.13;5048505;28;20065;-74
2022/12/26 07:51:14;;;;;;;0.40;0.40;;;;;;;-0.06;100.00;100828.59;5065044;28;20029;-74
2022/12/26 07:53:40;;;;;;;0.50;0.50;;;;;;;-0.23;100.00;100829.75;4999610;28;20033;-74
2022/12/26 07:56:06;;;;;;;0.50;0.50;;;;;;;-0.28;100.00;100828.38;4999716;28;20037;-74
2022/12/26 07:58:32;;;;;;;0.47;0.47;;;;;;;-0.25;100.00;100838.75;5031885;28;20095;-74
2022/12/26 08:01:05;;;;;;;0.40;0.40;;;;;;;-0.32;100.00;100835.69;4999531;28;20037;-74
2022/12/26 08:03:32;;;;;;;0.50;0.50;;;;;;;-0.40;100.00;100837.13;5032170;28;20124;-74
2022/12/26 08:05:58;;;;;;;0.50;0.50;;;;;;;-0.58;100.00;100837.44;4999695;28;20051;-74
2022/12/26 08:08:24;;;;;;;0.50;0.50;;;;;;;-0.66;100.00;100845.00;5017271;28;20535;-74
2022/12/26 08:10:58;;;;;;;0.50;0.50;;;;;;;-0.77;100.00;100847.50;5003353;28;20044;-74
2022/12/26 08:13:24;;;;;;;0.50;0.50;;;;;;;-0.61;100.00;100856.09;5036031;28;20468;-74
2022/12/26 08:15:50;;;;;;;0.50;0.50;;;;;;;-0.61;100.00;100865.81;5003211;28;20082;-74
2022/12/26 08:18:16;;;;;;;0.50;0.50;;;;;;;-0.41;100.00;100865.34;5052593;28;20048;-74
2022/12/26 08:20:41;;;;;;;0.50;0.50;;;;;;;-0.01;100.00;100871.41;5019474;28;20387;-74
2022/12/26 08:23:07;;;;;;;0.50;0.50;;;;;;;0.36;100.00;100871.50;5019291;28;20041;-75
2022/12/26 08:25:33;;;;;;;0.40;0.40;;;;;;;0.63;100.00;100875.81;5019074;28;20379;-73
2022/12/26 08:27:59;;;;;;;0.40;0.40;;;;;;;0.85;100.00;100883.94;5002737;28;20036;-74
2022/12/26 08:30:24;;;;;;;0.50;0.50;;;;;;;1.05;100.00;100889.56;5002955;28;20115;-74
2022/12/26 08:32:50;;;;;;;0.50;0.50;;;;;;;1.19;100.00;100884.13;5002923;28;20037;-74
2022/12/26 08:35:16;;;;;;;0.50;0.50;;;;;;;1.28;100.00;100866.72;5019235;28;20048;-74
2022/12/26 08:37:42;;;;;;;0.50;0.50;;;;;;;1.27;100.00;100873.81;5018823;28;20030;-74
2022/12/26 08:40:08;;;;;;;0.50;0.50;;;;;;;1.17;100.00;100879.91;5002678;28;20128;-74
2022/12/26 08:42:34;;;;;;;0.40;0.40;;;;;;;0.94;100.00;100860.38;5002386;28;20041;-74
2022/12/26 08:44:59;;;;;;;0.40;0.40;;;;;;;0.93;100.00;100880.72;5002310;28;20107;-74
2022/12/26 08:47:26;;;;;;;0.50;0.50;;;;;;;0.81;100.00;100887.72;5018704;28;20144;-74
2022/12/26 08:49:52;;;;;;;0.50;0.50;;;;;;;0.66;100.00;100894.13;5035136;28;20079;-74
2022/12/26 08:52:18;;;;;;;0.50;0.50;;;;;;;0.47;100.00;100888.44;5002358;28;20392;-74
2022/12/26 08:54:44;;;;;;;0.50;0.50;;;;;;;0.30;100.00;100893.09;5002384;28;20041;-73
2022/12/26 08:57:09;;;;;;;0.40;0.40;;;;;;;0.33;100.00;100889.41;5018418;28;20179;-74
2022/12/26 08:59:35;;;;;;;0.50;0.50;;;;;;;0.46;100.00;100898.19;5018650;28;20045;-74
2022/12/26 09:02:01;;;;;;;0.50;0.50;;;;;;;0.51;100.00;100898.72;5018573;28;20467;-74
2022/12/26 09:04:26;;;;;;;0.50;0.50;;;;;;;0.48;100.00;100906.00;5018551;28;20033;-73
2022/12/26 09:06:52;;;;;;;0.50;0.50;;;;;;;0.56;100.00;100909.81;5018342;28;20029;-74
2022/12/26 09:09:18;;;;;;;0.45;0.45;;;;;;;0.64;100.00;100917.22;5034480;28;20030;-74
2022/12/26 09:11:43;;;;;;;0.40;0.40;;;;;;;0.68;100.00;100923.97;5018485;28;20037;-74
2022/12/26 09:14:10;;;;;;;0.50;0.50;;;;;;;0.72;100.00;100914.88;5017860;28;20036;-75
2022/12/26 09:16:41;;;;;;;0.50;0.50;;;;;;;0.79;100.00;100921.41;5002081;28;20045;-74
2022/12/26 09:19:11;;;;;;;0.50;0.50;;;;;;;0.91;100.00;100922.34;5017781;28;20038;-74
2022/12/26 09:21:37;;;;;;;0.50;0.50;;;;;;;0.98;100.00;100922.75;5002121;28;20061;-74
2022/12/26 09:24:05;;;;;;;0.50;0.50;;;;;;;1.07;100.00;100937.97;5001623;28;20120;-74
2022/12/26 09:26:32;;;;;;;0.50;0.50;;;;;;;1.15;100.00;100943.56;5018104;28;20052;-74
2022/12/26 09:28:58;;;;;;;0.50;0.50;;;;;;;1.26;100.00;100948.09;5001800;28;20498;-73
2022/12/26 09:31:29;;;;;;;0.50;0.50;;;;;;;1.36;100.00;100948.28;5001886;28;20033;-74
2022/12/26 09:33:59;;;;;;;0.50;0.50;;;;;;;1.48;100.00;100952.66;5034228;28;20040;-74
2022/12/26 09:36:32;;;;;;;0.50;0.50;;;;;;;1.68;100.00;100952.03;5002286;28;20128;-74
2022/12/26 09:38:58;;;;;;;0.50;0.50;;;;;;;1.96;100.00;100950.00;5001469;28;20030;-74
2022/12/26 09:41:58;;;;;;;0.50;0.50;;;;;;;2.27;100.00;100947.66;5017441;28;20025;-74
2022/12/26 09:44:45;;;;;;;0.50;0.50;;;;;;;2.41;100.00;100950.09;5017727;28;20048;-74
2022/12/26 09:47:17;;;;;;;0.50;0.50;;;;;;;2.42;100.00;100947.31;5017571;28;20120;-74
2022/12/26 09:49:57;;;;;;;0.50;0.50;;;;;;;2.32;100.00;100943.69;5017362;28;20030;-74
2022/12/26 09:52:53;;;;;;;0.50;0.50;;;;;;;2.12;100.00;100941.72;5001327;28;20037;-74
2022/12/26 09:55:36;;;;;;;0.50;0.50;;;;;;;1.97;100.00;100946.38;4999199;28;20045;-74
2022/12/26 09:58:38;;;;;;;0.50;0.50;;;;;;;1.91;100.00;100942.38;5033899;28;20033;-74
2022/12/26 10:01:09;;;;;;;0.50;0.50;;;;;;;1.92;100.00;100940.56;4990470;28;20120;-74
2022/12/26 10:03:55;;;;;;;0.50;0.50;;;;;;;1.94;100.00;100963.38;5033968;28;20052;-74
2022/12/26 10:06:23;;;;;;;0.50;0.50;;;;;;;2.02;100.00;100965.44;5017239;28;20025;-74
2022/12/26 10:09:26;;;;;;;0.50;0.50;;;;;;;2.09;100.00;100961.38;5016979;28;20030;-74
2022/12/26 10:12:04;;;;;;;0.40;0.40;;;;;;;2.16;100.00;100959.94;5016691;28;20042;-75
2022/12/26 10:14:29;;;;;;;0.50;0.50;;;;;;;2.18;100.00;100965.97;5016452;28;20044;-78
2022/12/26 10:16:57;;;;;;;0.50;0.50;;;;;;;2.17;100.00;100972.25;5017136;28;20392;-76
2022/12/26 10:19:47;;;;;;;0.40;0.40;;;;;;;2.15;100.00;100952.94;5000726;28;20042;-77
2022/12/26 10:23:16;;;;;;;0.60;0.60;;;;;;;5.33;100.00;100963.97;5033388;28;20029;-77
2022/12/26 10:26:04;;;;;;;0.65;0.65;;;;;;;7.29;100.00;100966.22;4996055;28;20034;-77
2022/12/26 10:28:50;;;;;;;0.80;0.80;;;;;;;8.93;100.00;100975.66;4979203;28;20041;-78
2022/12/26 10:31:34;;;;;;;0.57;0.57;;;;;;;8.46;100.00;101003.66;5022669;28;20045;-80
2022/12/26 10:34:28;;;;;;;0.50;0.50;;;;;;;6.00;100.00;101021.09;5000516;28;20131;-78
2022/12/26 10:37:06;;;;;;;0.40;0.40;;;;;;;4.87;100.00;100988.47;5033024;28;20067;-78
2022/12/26 10:39:38;;;;;;;0.40;0.40;;;;;;;4.23;100.00;101003.66;5032751;28;20025;-78
2022/12/26 10:42:28;;;;;;;0.50;0.50;;;;;;;3.78;100.00;100990.53;5016589;28;20068;-79
2022/12/26 10:44:53;;;;;;;0.50;0.50;;;;;;;3.83;100.00;100985.69;5016352;28;20068;-78
2022/12/26 10:47:29;;;;;;;0.50;0.50;;;;;;;4.03;100.00;100983.19;5015991;28;20491;-78
2022/12/26 10:49:58;;;;;;;0.57;0.57;;;;;;;5.87;100.00;100996.47;5016144;28;20392;-77
2022/12/26 10:52:32;;;;;;;0.50;0.50;;;;;;;5.29;100.00;100999.84;5016869;28;20029;-77
2022/12/26 10:54:59;;;;;;;0.60;0.60;;;;;;;5.47;100.00;101008.06;4999715;28;20434;-77
2022/12/26 10:57:29;;;;;;;0.63;0.63;;;;;;;7.59;100.00;101010.50;5032345;28;20033;-77
2022/12/26 10:59:56;;;;;;;0.60;0.60;;;;;;;8.80;100.00;101008.25;5016195;28;20092;-78
2022/12/26 11:02:25;;;;;;;0.60;0.60;;;;;;;9.12;100.00;101017.50;5016425;28;20056;-77
2022/12/26 11:05:08;;;;;;;0.70;0.70;;;;;;;9.78;100.00;101021.25;5033354;28;20025;-78
2022/12/26 11:07:49;;;;;;;0.50;0.50;;;;;;;8.70;100.00;101015.56;5016178;28;20045;-76
2022/12/26 11:10:21;;;;;;;0.60;0.60;;;;;;;6.77;100.00;101004.16;4999939;28;20037;-76
2022/12/26 11:12:50;;;;;;;0.50;0.50;;;;;;;5.79;100.00;101005.16;4999197;28;20116;-79
2022/12/26 11:15:20;;;;;;;0.40;0.40;;;;;;;5.18;100.00;100999.97;5032675;28;20033;-76
2022/12/26 11:17:49;;;;;;;0.40;0.40;;;;;;;4.81;100.00;100998.69;5032517;28;20037;-76
2022/12/26 11:20:15;;;;;;;0.50;0.50;;;;;;;4.63;100.00;100997.59;5016056;28;20084;-77
2022/12/26 11:22:44;;;;;;;0.50;0.50;;;;;;;4.54;100.00;101001.91;5033509;28;20029;-76
2022/12/26 11:25:24;;;;;;;0.45;0.45;;;;;;;4.39;100.00;101004.06;4999493;28;20041;-76
2022/12/26 11:27:58;;;;;;;0.50;0.50;;;;;;;4.17;100.00;100996.19;5031967;28;20574;-81
2022/12/26 11:30:33;;;;;;;0.50;0.50;;;;;;;4.14;100.00;101002.59;5032436;28;20040;-80
2022/12/26 11:33:02;;;;;;;0.93;0.68;;;;;;;4.02;100.00;101014.25;4999629;28;20132;-79
2022/12/26 11:35:33;;;;;;;0.50;0.50;;;;;;;3.88;100.00;101018.06;5032333;28;20081;-78
2022/12/26 11:37:59;;;;;;;0.50;0.50;;;;;;;3.63;100.00;101005.94;5032337;28;20037;-79
2022/12/26 11:40:38;;;;;;;0.40;0.40;;;;;;;3.45;100.00;101002.13;5031844;28;20031;-76
2022/12/26 11:43:16;;;;;;;0.50;0.50;;;;;;;3.37;100.00;100992.09;5033387;28;20042;-77
2022/12/26 11:45:43;;;;;;;0.50;0.50;;;;;;;3.29;100.00;100989.22;5020387;28;20033;-77
2022/12/26 11:48:24;;;;;;;0.50;0.50;;;;;;;3.34;100.00;100997.66;5036000;28;20042;-76
2022/12/26 11:50:50;;;;;;;0.50;0.50;;;;;;;4.60;100.00;100992.53;5036541;28;20037;-78
2022/12/26 11:53:18;;;;;;;0.50;0.50;;;;;;;5.32;100.00;100990.75;5019475;28;20124;-79
2022/12/26 11:55:45;;;;;;;0.60;0.60;;;;;;;6.24;100.00;100993.13;5036276;28;20116;-78
2022/12/26 11:58:20;;;;;;;0.60;0.60;;;;;;;7.22;100.00;100997.19;5019399;28;20033;-78
2022/12/26 12:00:48;;;;;;;0.50;0.50;;;;;;;8.33;100.00;101009.38;5036051;28;20383;-78
2022/12/26 12:03:25;;;;;;;0.40;0.40;;;;;;;7.30;100.00;101045.44;5035846;28;20037;-78
2022/12/26 12:06:26;;;;;;;0.50;0.50;;;;;;;6.19;100.00;101057.63;5019850;28;20123;-76
2022/12/26 12:09:13;;;;;;;0.60;0.60;;;;;;;5.38;100.00;101041.72;5015108;28;20065;-78
2022/12/26 12:12:02;;;;;;;0.50;0.50;;;;;;;5.01;100.00;101036.09;5018030;28;20034;-77
2022/12/26 12:14:37;;;;;;;0.40;0.40;;;;;;;4.59;100.00;101044.13;5036001;28;20479;-77
2022/12/26 12:17:15;;;;;;;0.40;0.40;;;;;;;4.18;100.00;101048.44;5036006;28;20037;-77
2022/12/26 12:20:05;;;;;;;0.47;0.47;;;;;;;3.81;100.00;101039.97;5019353;28;20119;-76
2022/12/26 12:22:38;;;;;;;1.55;0.50;;;;;;;3.62;100.00;101043.28;5035790;28;20038;-77
2022/12/26 12:25:07;;;;;;;0.40;0.40;;;;;;;3.55;100.00;101032.31;5035743;28;20593;-77
2022/12/26 12:27:41;;;;;;;0.50;0.50;;;;;;;3.53;100.00;101020.94;5035473;28;20094;-78
2022/12/26 12:30:23;;;;;;;0.50;0.50;;;;;;;3.70;100.00;101020.41;5003333;28;20036;-77
2022/12/26 12:33:11;;;;;;;0.52;0.52;;;;;;;5.07;100.00;101006.25;5018813;28;20391;-77
2022/12/26 12:35:41;;;;;;;0.50;0.50;;;;;;;5.19;100.00;101007.84;5002555;28;20037;-78
2022/12/26 12:38:40;;;;;;;0.65;0.65;;;;;;;5.04;100.00;101002.03;5035524;28;20045;-77
2022/12/26 12:41:19;;;;;;;0.50;0.50;;;;;;;5.65;100.00;100994.91;5018514;28;20460;-76
2022/12/26 12:43:55;;;;;;;0.70;0.70;;;;;;;7.69;100.00;100997.09;5036568;28;20091;-76
2022/12/26 12:46:27;;;;;;;0.70;0.70;;;;;;;10.00;97.19;100987.53;5018852;28;20044;-77
2022/12/26 12:48:55;;;;;;;0.75;0.75;;;;;;;11.35;90.61;101002.16;5035056;28;20033;-76
2022/12/26 12:51:36;;;;;;;0.68;0.68;;;;;;;12.38;85.16;100998.31;5035152;28;20038;-77
2022/12/26 12:54:33;;;;;;;0.60;0.60;;;;;;;11.95;85.62;101001.50;5034412;28;20041;-77
2022/12/26 12:57:10;;;;;;;0.70;0.70;;;;;;;10.11;95.79;101006.06;5018733;28;20041;-77
2022/12/26 12:59:57;;;;;;;0.63;0.63;;;;;;;11.11;89.94;100986.94;5035099;28;20029;-77
2022/12/26 13:02:42;;;;;;;0.63;0.63;;;;;;;12.29;84.87;100993.00;5018562;28;20486;-78
2022/12/26 13:05:26;;;;;;;0.50;0.50;;;;;;;10.23;93.60;100993.13;5034876;28;20032;-77
2022/12/26 13:07:56;;;;;;;0.40;0.40;;;;;;;8.48;100.00;100990.97;5036013;28;20471;-77
2022/12/26 13:10:26;;;;;;;0.40;0.40;;;;;;;7.02;100.00;100999.97;5034926;28;20036;-77
2022/12/26 13:12:53;;;;;;;0.50;0.50;;;;;;;6.13;100.00;100999.44;5017980;28;20032;-76
2022/12/26 13:15:27;;;;;;;0.50;0.50;;;;;;;6.88;100.00;100999.59;5002015;28;20030;-76
2022/12/26 13:18:07;;;;;;;0.50;0.50;;;;;;;5.91;100.00;100993.38;5001950;28;20045;-77
2022/12/26 13:20:44;;;;;;;0.45;0.45;;;;;;;5.40;100.00;100998.91;5001917;28;20033;-76
2022/12/26 13:26:20;;;;;;;0.80;0.80;;;;;;;11.45;95.24;100997.41;5020675;28;20586;-76
2022/12/26 13:29:10;;;;;;;0.80;0.80;;;;;;;13.33;87.86;101006.63;5034139;28;20472;-77
2022/12/26 13:31:38;;;;;;;0.80;0.80;;;;;;;14.38;83.17;100996.34;5035563;28;20025;-77
2022/12/26 13:34:08;;;;;;;0.73;0.73;;;;;;;15.27;81.58;101001.13;5017894;28;20025;-77
2022/12/26 13:36:36;;;;;;;0.70;0.70;;;;;;;16.34;78.34;100999.59;5034403;28;20037;-77
2022/12/26 13:39:22;;;;;;;0.80;0.80;;;;;;;17.13;74.94;101006.84;5034444;28;20380;-76
2022/12/26 13:44:48;;;;;;;1.38;1.00;;;;;;;9.91;92.30;101043.94;5020261;28;20125;-77
2022/12/26 13:47:35;;;;;;;0.75;0.60;;;;;;;7.62;100.00;101053.06;5017930;28;20033;-78
2022/12/26 13:50:48;;;;;;;0.55;0.55;;;;;;;7.39;100.00;101049.94;5017481;28;20037;-76